Terminal Aerodrome Forecast
Issued by NWS North Platte, NE

Home | Current Version | Previous Version | Text Only | Print | Product List | Glossary On
Versions: 1 2 3 4 5 6 7 8 9 10 11 12 13 14 15 16 17 18 19 20
000
FTUS43 KLBF 282300
TAFLBF
TAF
KLBF 282324Z 2900/2924 18010KT P6SM VCTS SCT040CB BKN070
      TEMPO 2900/2903 3SM +TSRA OVC035CB
     FM290300 21005KT P6SM SCT020 BKN100
     FM291200 30008KT P6SM OVC020
     FM291600 34012KT P6SM BKN040 PROB30 2922/2924 4SM TSRA
      OVC040CB=

USA.gov is the U.S. government's official web portal to all federal, state and local government web resources and services.